Time;durP1;ratioP1;P1;durP2;ratioP2;P2;SDS_P1;SDS_P2;PMS_P1;PMS_P2;Temp;Humidity;BMP_temperature;BMP_pressure;BME280_temperature;BME280_humidity;BME280_pressure;Samples;Min_cycle;Max_cycle;Signal;HPM_P1;HPM_P2
2023/03/20 00:00:17;;;;;;;0.50;0.40;;;9.60;99.90;;;;;;5054444;28;20473;-83
2023/03/20 00:02:44;;;;;;;0.73;0.50;;;9.60;99.90;;;;;;5054399;28;20832;-83
2023/03/20 00:05:22;;;;;;;0.30;0.30;;;9.50;99.90;;;;;;5054469;28;20443;-83
2023/03/20 00:07:49;;;;;;;0.50;0.50;;;9.50;99.90;;;;;;5054444;28;20457;-83
2023/03/20 00:10:19;;;;;;;0.40;0.40;;;9.50;99.90;;;;;;5054285;28;20450;-83
2023/03/20 00:12:48;;;;;;;0.40;0.40;;;9.50;99.90;;;;;;5054289;28;20532;-85
2023/03/20 00:15:27;;;;;;;0.40;0.40;;;9.50;99.90;;;;;;5054210;28;20562;-85
2023/03/20 00:17:55;;;;;;;2.00;0.50;;;9.50;99.90;;;;;;5054461;28;20426;-85
2023/03/20 00:20:22;;;;;;;0.60;0.60;;;9.50;99.90;;;;;;5054181;28;20457;-85
2023/03/20 00:22:49;;;;;;;0.40;0.40;;;9.50;99.90;;;;;;5053988;28;20482;-85
2023/03/20 00:25:19;;;;;;;0.40;0.30;;;9.50;99.90;;;;;;5054027;28;20450;-85
2023/03/20 00:27:46;;;;;;;0.47;0.47;;;9.40;99.90;;;;;;5053975;28;20930;-85
2023/03/20 00:30:21;;;;;;;0.30;0.30;;;9.40;99.90;;;;;;5053990;28;20457;-85
2023/03/20 00:32:48;;;;;;;0.37;0.30;;;9.40;99.90;;;;;;5053941;28;20530;-85
2023/03/20 00:35:19;;;;;;;0.30;0.27;;;9.40;99.90;;;;;;5053593;28;20450;-85
2023/03/20 00:37:45;;;;;;;0.33;0.30;;;9.40;99.90;;;;;;5054053;28;20818;-85
2023/03/20 00:40:13;;;;;;;0.30;0.30;;;9.40;99.90;;;;;;5053550;28;20445;-85
2023/03/20 00:42:42;;;;;;;1.07;0.30;;;9.40;99.90;;;;;;5052721;28;20485;-85
2023/03/20 00:45:14;;;;;;;0.50;0.30;;;9.40;99.90;;;;;;5053666;28;20435;-85
2023/03/20 00:47:41;;;;;;;0.77;0.40;;;9.40;99.90;;;;;;5053402;28;20525;-85
2023/03/20 00:50:15;;;;;;;0.80;0.40;;;9.40;99.90;;;;;;5053588;28;20481;-85
2023/03/20 00:52:43;;;;;;;0.37;0.37;;;9.50;99.90;;;;;;5053643;28;20434;-85
2023/03/20 00:55:10;;;;;;;0.73;0.47;;;9.40;99.90;;;;;;5053492;28;20550;-85
2023/03/20 00:57:42;;;;;;;0.50;0.50;;;9.40;99.90;;;;;;5053499;28;20473;-85
2023/03/20 01:00:24;;;;;;;1.90;0.97;;;9.40;99.90;;;;;;5053471;28;20485;-85
2023/03/20 01:02:51;;;;;;;1.43;0.50;;;9.40;99.90;;;;;;5053454;28;20481;-85
2023/03/20 01:05:18;;;;;;;0.40;0.40;;;9.40;99.90;;;;;;5053498;28;20450;-85
2023/03/20 01:07:45;;;;;;;0.40;0.30;;;9.40;99.90;;;;;;5053306;28;20454;-85
2023/03/20 01:10:13;;;;;;;1.07;0.40;;;9.40;99.90;;;;;;5053380;28;20447;-85
2023/03/20 01:12:42;;;;;;;0.43;0.43;;;9.40;99.90;;;;;;5053361;28;20450;-85
2023/03/20 01:15:17;;;;;;;0.70;0.70;;;9.40;99.90;;;;;;5053102;28;20931;-85
2023/03/20 01:17:44;;;;;;;0.40;0.37;;;9.40;99.90;;;;;;5053050;28;20436;-85
2023/03/20 01:20:15;;;;;;;0.40;0.30;;;9.40;99.90;;;;;;5052970;28;20942;-85
2023/03/20 01:22:42;;;;;;;0.70;0.33;;;9.30;99.90;;;;;;5053195;28;20862;-85
2023/03/20 01:25:10;;;;;;;0.30;0.30;;;9.20;99.90;;;;;;5053259;28;20447;-85
2023/03/20 01:27:36;;;;;;;0.40;0.40;;;9.20;99.90;;;;;;5053022;28;21000;-85
2023/03/20 01:30:16;;;;;;;0.60;0.40;;;9.10;99.90;;;;;;5053137;28;20482;-85
2023/03/20 01:32:45;;;;;;;0.30;0.30;;;9.00;99.90;;;;;;5053170;28;20441;-85
2023/03/20 01:35:13;;;;;;;0.40;0.30;;;9.00;99.90;;;;;;5053140;28;20481;-85
2023/03/20 01:37:40;;;;;;;0.40;0.30;;;9.00;99.90;;;;;;5053076;28;20457;-85
2023/03/20 01:40:16;;;;;;;0.33;0.27;;;8.90;99.90;;;;;;5053069;28;20505;-85
2023/03/20 01:42:43;;;;;;;0.30;0.30;;;8.80;99.90;;;;;;5053014;28;20492;-85
2023/03/20 01:45:17;;;;;;;0.30;0.30;;;8.80;99.90;;;;;;5053142;28;20871;-85
2023/03/20 01:47:43;;;;;;;0.40;0.40;;;8.80;99.90;;;;;;5052781;28;20466;-85
2023/03/20 01:50:25;;;;;;;0.40;0.30;;;8.80;99.90;;;;;;5052866;28;20462;-85
2023/03/20 01:52:58;;;;;;;0.30;0.30;;;8.80;99.90;;;;;;5053399;28;20504;-85
2023/03/20 01:55:26;;;;;;;0.40;0.40;;;8.70;99.90;;;;;;5056460;28;20461;-85
2023/03/20 01:57:56;;;;;;;0.50;0.30;;;8.70;99.90;;;;;;5056813;28;20508;-85
2023/03/20 02:00:24;;;;;;;0.40;0.30;;;8.80;99.90;;;;;;5056860;28;20438;-85
2023/03/20 02:02:51;;;;;;;0.30;0.20;;;8.80;99.90;;;;;;5056935;28;20476;-85
2023/03/20 02:05:21;;;;;;;0.30;0.20;;;8.90;99.90;;;;;;5056714;28;20449;-85
2023/03/20 02:07:56;;;;;;;0.30;0.30;;;8.90;99.90;;;;;;5056306;28;20426;-85
2023/03/20 02:10:23;;;;;;;0.30;0.20;;;8.90;99.90;;;;;;5056664;28;20580;-85
2023/03/20 02:12:51;;;;;;;0.30;0.30;;;8.90;99.90;;;;;;5056574;28;20481;-85
2023/03/20 02:15:18;;;;;;;0.30;0.30;;;8.90;99.90;;;;;;5056177;28;20797;-85
2023/03/20 02:17:46;;;;;;;0.30;0.20;;;8.90;99.90;;;;;;5056262;28;20511;-85
2023/03/20 02:20:22;;;;;;;0.30;0.30;;;8.90;99.90;;;;;;5056458;28;20446;-85
2023/03/20 02:23:20;;;;;;;0.30;0.30;;;9.00;99.90;;;;;;5056386;28;20495;-85
2023/03/20 02:26:22;;;;;;;0.30;0.30;;;8.90;99.90;;;;;;5056380;28;20816;-85
2023/03/20 02:29:19;;;;;;;0.30;0.20;;;9.00;99.90;;;;;;5024140;28;21013;-85
2023/03/20 02:32:15;;;;;;;0.30;0.30;;;9.00;99.90;;;;;;5056226;28;20438;-85
2023/03/20 02:35:08;;;;;;;0.30;0.23;;;9.00;99.90;;;;;;5056199;28;20446;-85
2023/03/20 02:37:57;;;;;;;0.30;0.20;;;9.00;99.90;;;;;;5056143;28;20435;-85
2023/03/20 02:40:33;;;;;;;0.40;0.30;;;9.00;99.90;;;;;;5055964;28;20451;-85
2023/03/20 02:43:08;;;;;;;0.30;0.20;;;9.00;99.90;;;;;;5056536;28;20449;-85
2023/03/20 02:45:42;;;;;;;0.30;0.30;;;9.00;99.90;;;;;;5055707;28;20921;-85
2023/03/20 02:48:16;;;;;;;0.60;0.60;;;8.90;99.90;;;;;;5056056;28;20884;-85
2023/03/20 02:50:49;;;;;;;0.53;0.30;;;9.00;99.90;;;;;;5056800;28;20422;-85
2023/03/20 02:53:28;;;;;;;0.60;0.30;;;9.00;99.90;;;;;;5055634;28;20435;-85
2023/03/20 02:56:03;;;;;;;0.30;0.30;;;9.00;99.90;;;;;;5055632;28;20422;-85
2023/03/20 02:58:37;;;;;;;0.43;0.43;;;9.00;99.90;;;;;;5055699;28;20468;-85
2023/03/20 03:01:10;;;;;;;0.40;0.30;;;9.00;99.90;;;;;;5055737;28;20430;-85
2023/03/20 03:03:43;;;;;;;0.30;0.30;;;9.00;99.90;;;;;;5055614;28;20565;-85
2023/03/20 03:06:14;;;;;;;0.30;0.20;;;9.00;99.90;;;;;;5054539;28;20430;-85
2023/03/20 03:08:48;;;;;;;0.40;0.30;;;9.00;99.90;;;;;;5055350;28;20465;-85
2023/03/20 03:11:16;;;;;;;0.30;0.20;;;9.00;99.90;;;;;;5055542;28;20435;-85
2023/03/20 03:13:46;;;;;;;0.90;0.47;;;8.90;99.90;;;;;;5055421;28;20572;-85
2023/03/20 03:16:25;;;;;;;0.30;0.30;;;8.90;99.90;;;;;;5055671;28;20479;-85
2023/03/20 03:19:01;;;;;;;0.50;0.30;;;8.90;99.90;;;;;;5055317;28;20477;-85
2023/03/20 03:21:31;;;;;;;0.30;0.30;;;8.90;99.90;;;;;;5055137;28;20415;-85
2023/03/20 03:24:00;;;;;;;0.30;0.20;;;8.90;99.90;;;;;;5055169;28;20485;-85
2023/03/20 03:26:32;;;;;;;0.30;0.20;;;8.90;99.90;;;;;;5055134;28;20447;-85
2023/03/20 03:29:02;;;;;;;0.30;0.30;;;8.90;99.90;;;;;;5055177;28;20528;-84
2023/03/20 03:31:30;;;;;;;0.30;0.20;;;8.90;99.90;;;;;;5055135;28;20530;-84
2023/03/20 03:33:59;;;;;;;0.40;0.30;;;8.90;99.90;;;;;;5055033;28;20442;-84
2023/03/20 03:36:40;;;;;;;0.30;0.30;;;8.90;99.90;;;;;;5054701;28;20454;-84
2023/03/20 03:39:16;;;;;;;0.30;0.30;;;8.90;99.90;;;;;;5054905;28;20477;-84
2023/03/20 03:41:46;;;;;;;0.30;0.20;;;8.90;99.90;;;;;;5054951;28;20445;-84
2023/03/20 03:44:19;;;;;;;0.40;0.30;;;8.90;99.90;;;;;;5054538;28;20997;-84
2023/03/20 03:46:51;;;;;;;0.40;0.30;;;9.00;99.90;;;;;;5054495;28;20492;-84
2023/03/20 03:49:22;;;;;;;0.30;0.30;;;9.00;99.90;;;;;;5054762;28;20467;-84
2023/03/20 03:51:53;;;;;;;0.30;0.30;;;8.90;99.90;;;;;;5054746;28;20434;-84
2023/03/20 03:54:25;;;;;;;13.33;0.57;;;8.90;99.90;;;;;;5054655;28;20442;-84
2023/03/20 03:56:54;;;;;;;0.40;0.40;;;8.90;99.90;;;;;;5054689;28;20422;-84
2023/03/20 03:59:27;;;;;;;0.30;0.30;;;8.90;99.90;;;;;;5054495;28;20553;-83
2023/03/20 04:01:56;;;;;;;0.30;0.20;;;8.90;99.90;;;;;;5054305;28;20415;-84
2023/03/20 04:04:25;;;;;;;0.47;0.47;;;8.90;99.90;;;;;;5054456;28;20827;-84
2023/03/20 04:06:51;;;;;;;0.60;0.30;;;8.90;99.90;;;;;;5054323;28;20458;-84
2023/03/20 04:09:18;;;;;;;0.30;0.20;;;8.80;99.90;;;;;;5054245;28;20473;-84
2023/03/20 04:11:50;;;;;;;0.30;0.30;;;8.80;99.90;;;;;;5054359;28;20446;-83
2023/03/20 04:14:17;;;;;;;0.40;0.37;;;8.90;99.90;;;;;;5054064;28;20447;-84
2023/03/20 04:16:44;;;;;;;0.60;0.30;;;8.90;99.90;;;;;;5053923;28;20450;-85
2023/03/20 04:19:11;;;;;;;0.43;0.43;;;8.90;99.90;;;;;;5053787;28;20889;-84
2023/03/20 04:21:38;;;;;;;0.40;0.30;;;8.90;99.90;;;;;;5054145;28;20454;-84
2023/03/20 04:24:05;;;;;;;0.30;0.30;;;8.90;99.90;;;;;;5053771;28;20478;-84
2023/03/20 04:26:32;;;;;;;0.50;0.50;;;8.90;99.90;;;;;;5053835;28;20439;-84
2023/03/20 04:29:00;;;;;;;0.30;0.30;;;8.90;99.90;;;;;;5053591;28;20878;-84
2023/03/20 04:31:27;;;;;;;2.00;0.40;;;8.80;99.90;;;;;;5054035;28;20461;-82
2023/03/20 04:33:54;;;;;;;0.50;0.30;;;8.80;99.90;;;;;;5053656;28;20525;-82
2023/03/20 04:36:20;;;;;;;0.97;0.33;;;8.80;99.90;;;;;;5054697;28;20443;-83
2023/03/20 04:38:47;;;;;;;0.40;0.30;;;8.70;99.90;;;;;;5053739;28;20469;-83
2023/03/20 04:41:14;;;;;;;0.40;0.30;;;8.70;99.90;;;;;;5053789;28;20451;-83
2023/03/20 04:43:41;;;;;;;0.40;0.30;;;8.60;99.90;;;;;;5053435;28;20450;-84
2023/03/20 04:46:09;;;;;;;11.97;0.67;;;8.50;99.90;;;;;;5053499;28;20482;-84
2023/03/20 04:48:35;;;;;;;0.30;0.30;;;8.40;99.90;;;;;;5053620;28;20470;-84
2023/03/20 04:51:02;;;;;;;0.30;0.20;;;8.40;99.90;;;;;;5053652;28;20459;-84
2023/03/20 04:53:29;;;;;;;0.30;0.20;;;8.40;99.90;;;;;;5053318;28;20454;-84
2023/03/20 04:55:55;;;;;;;0.30;0.30;;;8.30;99.90;;;;;;5053311;28;20798;-84
2023/03/20 04:58:22;;;;;;;0.40;0.30;;;8.30;99.90;;;;;;5053545;28;20470;-84
2023/03/20 05:00:49;;;;;;;0.40;0.30;;;8.20;99.90;;;;;;5053471;28;20816;-84
2023/03/20 05:03:17;;;;;;;0.30;0.20;;;8.20;99.90;;;;;;5053637;28;20451;-84
2023/03/20 05:05:44;;;;;;;1.23;0.37;;;8.20;99.90;;;;;;5053495;28;20474;-84
2023/03/20 05:08:10;;;;;;;0.50;0.40;;;8.30;99.90;;;;;;5053080;28;20872;-84
2023/03/20 05:10:37;;;;;;;0.40;0.37;;;8.30;99.90;;;;;;5053406;28;20454;-84
2023/03/20 05:13:04;;;;;;;0.30;0.30;;;8.40;99.90;;;;;;5053355;28;20454;-84
2023/03/20 05:15:31;;;;;;;1.47;0.33;;;8.30;99.90;;;;;;5053010;28;20950;-84
2023/03/20 05:17:57;;;;;;;0.30;0.30;;;8.40;99.90;;;;;;5053054;28;20438;-84
2023/03/20 05:20:26;;;;;;;0.40;0.30;;;8.40;99.90;;;;;;5053266;28;20455;-84
2023/03/20 05:22:52;;;;;;;0.30;0.30;;;8.50;99.90;;;;;;5053223;28;20809;-84
2023/03/20 05:25:19;;;;;;;0.30;0.30;;;8.50;99.90;;;;;;5053256;28;20478;-85
2023/03/20 05:27:46;;;;;;;0.43;0.40;;;8.50;99.90;;;;;;5052863;28;20931;-84
2023/03/20 05:30:15;;;;;;;0.30;0.30;;;8.60;99.90;;;;;;5056156;28;20460;-84
2023/03/20 05:32:42;;;;;;;0.30;0.20;;;8.60;99.90;;;;;;5057055;28;21004;-84
2023/03/20 05:35:09;;;;;;;0.30;0.30;;;8.60;99.90;;;;;;5057192;28;20517;-84
2023/03/20 05:37:37;;;;;;;1.13;0.40;;;8.70;99.90;;;;;;5057214;28;20500;-84
2023/03/20 05:40:05;;;;;;;0.30;0.30;;;8.70;99.90;;;;;;5056998;28;20474;-84
2023/03/20 05:42:32;;;;;;;0.30;0.30;;;8.70;99.90;;;;;;5057096;28;20473;-84
2023/03/20 05:44:59;;;;;;;1.83;0.37;;;8.70;99.90;;;;;;5056728;28;20854;-84
2023/03/20 05:47:26;;;;;;;0.47;0.30;;;8.70;99.90;;;;;;5056650;28;20504;-84
2023/03/20 05:49:52;;;;;;;0.80;0.40;;;8.70;99.90;;;;;;5056688;28;20469;-84
2023/03/20 05:52:19;;;;;;;0.40;0.40;;;8.70;99.90;;;;;;5057427;28;20462;-84
2023/03/20 05:54:47;;;;;;;0.30;0.30;;;8.70;99.90;;;;;;5056972;28;20446;-84
2023/03/20 05:57:14;;;;;;;0.40;0.27;;;8.70;99.90;;;;;;5057745;28;20829;-84
2023/03/20 05:59:40;;;;;;;0.80;0.30;;;8.70;99.90;;;;;;5056792;28;20485;-84
2023/03/20 06:02:07;;;;;;;0.37;0.30;;;8.80;99.90;;;;;;5056852;28;20453;-84
2023/03/20 06:04:36;;;;;;;0.40;0.40;;;8.90;99.90;;;;;;5056657;28;20859;-84
2023/03/20 06:07:03;;;;;;;0.30;0.30;;;8.90;99.90;;;;;;5056720;28;20477;-84
2023/03/20 06:09:30;;;;;;;0.30;0.30;;;9.00;99.90;;;;;;5056258;28;20993;-84
2023/03/20 06:11:58;;;;;;;0.50;0.40;;;9.00;99.90;;;;;;5056591;28;20533;-84
2023/03/20 06:14:25;;;;;;;0.40;0.30;;;9.10;99.90;;;;;;5056530;28;20446;-84
2023/03/20 06:16:53;;;;;;;0.30;0.30;;;9.20;99.90;;;;;;5056514;28;20879;-84
2023/03/20 06:19:20;;;;;;;0.40;0.30;;;9.20;99.90;;;;;;5056405;28;20466;-84
2023/03/20 06:21:47;;;;;;;0.40;0.30;;;9.30;99.90;;;;;;5056461;28;20474;-84
2023/03/20 06:24:14;;;;;;;0.40;0.40;;;9.40;99.90;;;;;;5056328;28;20450;-84
2023/03/20 06:26:41;;;;;;;0.30;0.30;;;9.40;99.90;;;;;;5056302;28;20450;-84
2023/03/20 06:29:09;;;;;;;0.30;0.27;;;9.50;99.90;;;;;;5055959;28;20465;-84
2023/03/20 06:31:36;;;;;;;0.30;0.20;;;9.50;99.90;;;;;;5056278;28;20457;-84
2023/03/20 06:34:03;;;;;;;0.40;0.30;;;9.60;99.90;;;;;;5056246;28;20454;-84
2023/03/20 06:36:31;;;;;;;0.37;0.33;;;9.80;99.90;;;;;;5056079;28;20814;-84
2023/03/20 06:38:57;;;;;;;0.50;0.50;;;9.90;99.90;;;;;;5055975;28;20520;-84
2023/03/20 06:41:25;;;;;;;0.70;0.40;;;10.00;99.90;;;;;;5056015;28;20448;-84
2023/03/20 06:43:52;;;;;;;0.80;0.40;;;10.10;99.90;;;;;;5055754;28;20525;-85
2023/03/20 06:46:20;;;;;;;0.87;0.40;;;10.10;99.90;;;;;;5055591;28;20539;-84
2023/03/20 06:48:47;;;;;;;0.40;0.30;;;10.20;99.90;;;;;;5055865;28;20488;-84
2023/03/20 06:51:14;;;;;;;0.70;0.37;;;10.20;99.90;;;;;;5055859;28;20553;-84
2023/03/20 06:53:42;;;;;;;0.30;0.30;;;10.20;99.90;;;;;;5055643;28;20952;-84
2023/03/20 06:56:10;;;;;;;0.40;0.30;;;10.40;99.90;;;;;;5055771;28;20537;-84
2023/03/20 06:58:37;;;;;;;0.30;0.30;;;10.60;99.90;;;;;;5055472;28;20530;-85
2023/03/20 07:01:09;;;;;;;0.80;0.30;;;10.80;99.90;;;;;;5055726;28;20455;-84
2023/03/20 07:03:37;;;;;;;0.40;0.40;;;11.00;99.90;;;;;;5055664;28;20435;-84
2023/03/20 07:06:05;;;;;;;0.40;0.30;;;10.90;99.90;;;;;;5055496;28;20489;-84
2023/03/20 07:08:32;;;;;;;0.80;0.40;;;10.90;99.90;;;;;;5055658;28;20549;-84
2023/03/20 07:10:59;;;;;;;0.50;0.40;;;11.00;99.90;;;;;;5055188;28;20450;-84
2023/03/20 07:13:27;;;;;;;0.60;0.30;;;11.10;99.90;;;;;;5055474;28;20465;-84
2023/03/20 07:15:53;;;;;;;0.60;0.57;;;11.30;99.90;;;;;;5055114;28;20519;-84
2023/03/20 07:18:21;;;;;;;0.57;0.50;;;11.50;99.90;;;;;;5055034;28;20468;-84
2023/03/20 07:20:51;;;;;;;0.40;0.30;;;11.80;99.90;;;;;;5055044;28;20486;-84
2023/03/20 07:23:18;;;;;;;0.40;0.40;;;12.10;99.90;;;;;;5055322;28;20458;-85
2023/03/20 07:25:45;;;;;;;0.53;0.30;;;12.30;99.90;;;;;;5054823;28;20490;-84
2023/03/20 07:28:12;;;;;;;0.50;0.50;;;12.20;99.90;;;;;;5054784;28;20557;-84
2023/03/20 07:30:40;;;;;;;1.43;0.50;;;12.10;99.90;;;;;;5055193;28;20454;-84
2023/03/20 07:33:06;;;;;;;0.50;0.40;;;11.80;99.90;;;;;;5055212;28;20458;-85
2023/03/20 07:35:33;;;;;;;0.50;0.40;;;11.60;99.90;;;;;;5054791;28;20457;-84
2023/03/20 07:38:01;;;;;;;0.40;0.40;;;11.50;99.90;;;;;;5054674;28;20519;-82
2023/03/20 07:40:28;;;;;;;0.70;0.50;;;11.50;99.90;;;;;;5054904;28;20447;-83
2023/03/20 07:42:54;;;;;;;0.50;0.37;;;11.60;99.90;;;;;;5054879;28;20454;-82
2023/03/20 07:45:21;;;;;;;0.50;0.40;;;11.80;99.90;;;;;;5054441;28;20478;-82
2023/03/20 07:47:48;;;;;;;0.40;0.40;;;12.10;99.90;;;;;;5054291;28;20544;-82
2023/03/20 07:50:15;;;;;;;0.83;0.40;;;12.30;99.90;;;;;;5054818;28;20419;-82
2023/03/20 07:52:46;;;;;;;0.40;0.40;;;12.50;99.90;;;;;;5053801;28;20454;-82
2023/03/20 07:55:14;;;;;;;0.70;0.40;;;12.60;99.90;;;;;;5054694;28;20427;-82
2023/03/20 07:57:41;;;;;;;0.60;0.50;;;12.60;99.90;;;;;;5054764;28;20438;-82
2023/03/20 08:00:09;;;;;;;0.50;0.40;;;12.50;99.90;;;;;;5054478;28;20466;-82
2023/03/20 08:02:36;;;;;;;1.00;0.60;;;12.50;99.90;;;;;;5054483;28;20442;-83
2023/03/20 08:05:03;;;;;;;0.60;0.50;;;12.50;99.90;;;;;;5054376;28;20482;-82
2023/03/20 08:07:29;;;;;;;0.80;0.50;;;12.50;99.90;;;;;;5054146;28;20434;-82
2023/03/20 08:09:56;;;;;;;0.60;0.40;;;12.60;99.90;;;;;;5054271;28;20470;-82
2023/03/20 08:12:24;;;;;;;0.40;0.30;;;12.60;99.90;;;;;;5054055;28;20446;-82
2023/03/20 08:14:51;;;;;;;0.53;0.40;;;12.70;99.90;;;;;;5054251;28;20562;-82
2023/03/20 08:17:18;;;;;;;0.60;0.60;;;12.60;99.90;;;;;;5053864;28;20485;-82
2023/03/20 08:19:46;;;;;;;0.60;0.50;;;12.70;99.90;;;;;;5053843;28;20455;-82
2023/03/20 08:22:12;;;;;;;0.40;0.30;;;12.80;99.90;;;;;;5054047;28;20465;-82
2023/03/20 08:24:40;;;;;;;2.40;0.50;;;12.70;99.90;;;;;;5054915;28;20449;-83
2023/03/20 08:27:07;;;;;;;0.37;0.30;;;12.60;99.90;;;;;;5053922;28;20503;-79
2023/03/20 08:29:35;;;;;;;0.40;0.40;;;12.50;99.90;;;;;;5053775;28;20490;-82
2023/03/20 08:32:02;;;;;;;0.40;0.30;;;12.30;99.90;;;;;;5053637;28;20477;-82
2023/03/20 08:34:30;;;;;;;0.50;0.40;;;12.20;99.90;;;;;;5053582;28;20455;-83
2023/03/20 08:36:57;;;;;;;2.20;0.40;;;12.20;99.90;;;;;;5053879;28;20484;-82
2023/03/20 08:39:24;;;;;;;1.70;0.50;;;12.20;99.90;;;;;;5053748;28;20465;-82
2023/03/20 08:41:50;;;;;;;1.40;0.53;;;12.20;99.90;;;;;;5053572;28;20460;-82
2023/03/20 08:44:17;;;;;;;0.40;0.30;;;12.20;99.90;;;;;;5053930;28;20434;-82
2023/03/20 08:46:46;;;;;;;0.40;0.40;;;12.40;99.90;;;;;;5053100;28;20525;-83
2023/03/20 08:49:12;;;;;;;0.60;0.40;;;12.60;99.90;;;;;;5053555;28;20506;-83
2023/03/20 08:51:39;;;;;;;0.60;0.50;;;12.80;99.90;;;;;;5053641;28;20504;-83
2023/03/20 08:54:06;;;;;;;0.50;0.40;;;13.00;99.90;;;;;;5053302;28;20957;-83
2023/03/20 08:56:32;;;;;;;0.70;0.40;;;13.20;99.90;;;;;;5053571;28;20492;-82
2023/03/20 08:58:59;;;;;;;0.50;0.50;;;13.40;99.90;;;;;;5053196;28;21011;-83
2023/03/20 09:01:26;;;;;;;0.60;0.60;;;13.80;99.90;;;;;;5053374;28;20450;-83
2023/03/20 09:03:54;;;;;;;0.90;0.40;;;14.10;99.90;;;;;;5052624;28;20449;-83
2023/03/20 09:06:20;;;;;;;0.40;0.30;;;14.40;99.90;;;;;;5053398;28;20478;-82
2023/03/20 09:08:47;;;;;;;0.67;0.40;;;14.80;99.90;;;;;;5053082;28;20461;-82
2023/03/20 09:11:14;;;;;;;0.40;0.40;;;15.00;99.90;;;;;;5053172;28;20427;-83
2023/03/20 09:13:40;;;;;;;0.60;0.60;;;15.10;99.90;;;;;;5053361;28;20457;-83
2023/03/20 09:16:08;;;;;;;0.70;0.53;;;15.10;99.90;;;;;;5053321;28;20446;-83
2023/03/20 09:18:35;;;;;;;0.47;0.43;;;15.20;99.90;;;;;;5052990;28;20481;-83
2023/03/20 09:21:03;;;;;;;2.00;0.40;;;15.10;99.90;;;;;;5053261;28;20486;-82
2023/03/20 09:23:30;;;;;;;0.50;0.40;;;15.00;99.90;;;;;;5053252;28;20450;-82
2023/03/20 09:25:57;;;;;;;0.70;0.70;;;15.00;99.90;;;;;;5052852;28;21047;-82
2023/03/20 09:28:24;;;;;;;0.50;0.50;;;15.00;99.90;;;;;;5053145;28;20462;-82
2023/03/20 09:30:55;;;;;;;0.60;0.50;;;14.80;99.90;;;;;;5053188;28;20446;-82
2023/03/20 09:33:22;;;;;;;0.50;0.47;;;14.70;99.90;;;;;;5053370;28;20438;-82
2023/03/20 09:35:49;;;;;;;0.70;0.50;;;14.60;99.90;;;;;;5053181;28;20442;-82
2023/03/20 09:38:17;;;;;;;2.10;0.50;;;14.60;99.90;;;;;;5053026;28;20466;-83
2023/03/20 09:40:51;;;;;;;0.57;0.30;;;14.60;99.90;;;;;;5052824;28;20930;-83
2023/03/20 09:43:28;;;;;;;0.60;0.50;;;14.70;99.90;;;;;;5053115;28;20473;-82
2023/03/20 09:46:07;;;;;;;1.20;0.50;;;14.80;99.90;;;;;;5052828;28;20865;-82
2023/03/20 09:48:40;;;;;;;1.37;0.70;;;14.80;99.90;;;;;;5052476;28;21044;-82
2023/03/20 09:51:17;;;;;;;0.80;0.50;;;14.80;99.90;;;;;;5053079;28;20863;-81
2023/03/20 09:53:49;;;;;;;0.93;0.50;;;14.70;99.90;;;;;;5052605;28;20852;-83
2023/03/20 09:56:20;;;;;;;0.50;0.50;;;14.70;99.90;;;;;;5052697;28;20430;-83
2023/03/20 09:58:52;;;;;;;0.40;0.30;;;14.70;99.90;;;;;;5052614;28;20477;-83
2023/03/20 10:01:20;;;;;;;0.50;0.50;;;14.80;99.90;;;;;;5052646;28;20794;-83
2023/03/20 10:03:52;;;;;;;0.40;0.40;;;15.00;99.90;;;;;;5052898;28;20442;-83
2023/03/20 10:06:19;;;;;;;0.50;0.47;;;15.20;99.90;;;;;;5052548;28;20936;-83
2023/03/20 10:08:47;;;;;;;0.70;0.33;;;15.60;99.90;;;;;;5052473;28;20986;-83
2023/03/20 10:11:34;;;;;;;0.93;0.50;;;16.20;99.90;;;;;;5052814;28;20453;-82
2023/03/20 10:14:17;;;;;;;1.17;0.60;;;16.60;99.90;;;;;;5052829;28;20443;-83
2023/03/20 10:17:03;;;;;;;0.50;0.40;;;17.40;99.90;;;;;;5056529;28;20434;-86
2023/03/20 10:19:31;;;;;;;2.73;0.43;;;17.60;99.90;;;;;;5057003;28;20822;-84
2023/03/20 10:22:02;;;;;;;1.90;0.70;;;17.80;99.90;;;;;;5056591;28;20462;-84
2023/03/20 10:24:35;;;;;;;0.50;0.50;;;17.70;99.90;;;;;;5056212;28;20414;-83
2023/03/20 10:27:07;;;;;;;0.70;0.70;;;17.30;99.90;;;;;;5056460;28;20482;-85
2023/03/20 10:29:47;;;;;;;0.50;0.40;;;16.80;99.90;;;;;;5056378;28;20474;-85
2023/03/20 10:32:20;;;;;;;0.47;0.30;;;16.20;99.90;;;;;;5056071;28;20430;-85
2023/03/20 10:35:13;;;;;;;3.80;0.40;;;15.70;99.90;;;;;;5056358;28;20435;-85
2023/03/20 10:37:54;;;;;;;0.30;0.30;;;15.20;99.90;;;;;;5056234;28;20442;-86
2023/03/20 10:40:28;;;;;;;0.67;0.50;;;14.70;99.90;;;;;;5056670;28;20476;-85
2023/03/20 10:42:59;;;;;;;0.50;0.40;;;14.40;99.90;;;;;;5056130;28;20426;-85
2023/03/20 10:45:35;;;;;;;1.33;0.50;;;14.10;99.90;;;;;;5056029;28;20457;-85
2023/03/20 10:48:07;;;;;;;0.50;0.40;;;13.80;99.90;;;;;;5055593;28;20560;-86
2023/03/20 10:50:40;;;;;;;0.50;0.50;;;13.70;99.90;;;;;;5056198;28;20914;-85
2023/03/20 10:53:07;;;;;;;0.30;0.30;;;13.50;99.90;;;;;;5056200;28;20789;-86
2023/03/20 10:55:40;;;;;;;0.50;0.40;;;13.40;99.90;;;;;;5056021;28;20450;-85
2023/03/20 10:58:16;;;;;;;0.53;0.40;;;13.40;99.90;;;;;;5055651;28;20473;-85
2023/03/20 11:00:43;;;;;;;0.40;0.33;;;13.30;99.90;;;;;;5055830;28;20910;-86
2023/03/20 11:03:17;;;;;;;0.40;0.30;;;13.30;99.90;;;;;;5055844;28;20482;-86
2023/03/20 11:05:44;;;;;;;0.80;0.40;;;13.10;99.90;;;;;;5055819;28;20437;-85
2023/03/20 11:08:13;;;;;;;0.60;0.60;;;13.00;99.90;;;;;;5055716;28;20477;-85
2023/03/20 11:10:43;;;;;;;0.40;0.40;;;13.00;99.90;;;;;;5055609;28;20462;-86
2023/03/20 11:13:18;;;;;;;0.40;0.30;;;12.90;99.90;;;;;;5055692;28;20446;-86
2023/03/20 11:15:45;;;;;;;0.67;0.53;;;13.00;99.90;;;;;;5055635;28;20469;-85
2023/03/20 11:18:13;;;;;;;0.80;0.40;;;12.90;99.90;;;;;;5055149;28;20467;-85
2023/03/20 11:20:46;;;;;;;0.40;0.30;;;13.00;99.90;;;;;;5055638;28;20474;-85
2023/03/20 11:23:16;;;;;;;1.13;0.40;;;13.20;99.90;;;;;;5055511;28;20439;-86
2023/03/20 11:25:51;;;;;;;0.50;0.40;;;13.60;99.90;;;;;;5055129;28;20451;-85
2023/03/20 11:28:32;;;;;;;0.50;0.40;;;13.90;99.90;;;;;;5054534;28;20466;-85
2023/03/20 11:31:03;;;;;;;0.37;0.33;;;14.20;99.90;;;;;;5055095;28;20435;-86
2023/03/20 11:33:30;;;;;;;0.60;0.60;;;14.30;99.90;;;;;;5055043;28;20430;-86
2023/03/20 11:35:58;;;;;;;0.60;0.60;;;14.20;99.90;;;;;;5055020;28;20461;-85
2023/03/20 11:38:25;;;;;;;0.53;0.50;;;14.20;99.90;;;;;;5054883;28;20470;-86
2023/03/20 11:40:55;;;;;;;0.40;0.30;;;14.20;99.90;;;;;;5055204;28;20503;-85
2023/03/20 11:43:23;;;;;;;0.50;0.40;;;14.10;99.90;;;;;;5054939;28;20930;-85
2023/03/20 11:45:54;;;;;;;0.40;0.40;;;14.30;99.90;;;;;;5054728;28;20457;-85
2023/03/20 11:48:23;;;;;;;0.40;0.30;;;14.40;99.90;;;;;;5054888;28;20470;-84
2023/03/20 11:50:57;;;;;;;1.07;0.50;;;14.70;99.90;;;;;;5055002;28;20446;-87
2023/03/20 11:53:28;;;;;;;0.60;0.43;;;14.80;99.90;;;;;;5055315;28;20426;-87
2023/03/20 11:56:07;;;;;;;0.47;0.33;;;14.90;99.90;;;;;;5055244;28;20430;-87
2023/03/20 11:58:36;;;;;;;0.73;0.40;;;14.80;99.90;;;;;;5055337;28;20953;-86
2023/03/20 12:01:03;;;;;;;0.40;0.30;;;14.70;99.90;;;;;;5054698;28;20455;-85
2023/03/20 12:03:41;;;;;;;0.50;0.40;;;14.70;99.90;;;;;;5054665;28;20446;-85
2023/03/20 12:06:13;;;;;;;0.40;0.40;;;14.50;99.90;;;;;;5054569;28;20451;-85
2023/03/20 12:08:43;;;;;;;0.73;0.40;;;14.50;99.90;;;;;;5054555;28;20501;-85
2023/03/20 12:11:24;;;;;;;0.40;0.33;;;14.30;99.90;;;;;;5054477;28;20804;-85
2023/03/20 12:13:52;;;;;;;0.60;0.40;;;14.10;99.90;;;;;;5054475;28;20438;-82
2023/03/20 12:16:23;;;;;;;0.80;0.53;;;14.10;99.90;;;;;;5054228;28;20446;-82
2023/03/20 12:18:54;;;;;;;1.13;0.50;;;14.10;99.90;;;;;;5054516;28;20474;-82
2023/03/20 12:21:26;;;;;;;0.40;0.40;;;14.20;99.90;;;;;;5054213;28;20487;-82
2023/03/20 12:24:00;;;;;;;1.47;0.50;;;14.30;99.90;;;;;;5054807;28;20769;-82
2023/03/20 12:26:33;;;;;;;0.43;0.40;;;14.40;99.90;;;;;;5053776;28;20993;-82
2023/03/20 12:29:06;;;;;;;0.80;0.40;;;14.40;99.90;;;;;;5053834;28;20451;-82
2023/03/20 12:31:36;;;;;;;0.30;0.30;;;14.50;99.90;;;;;;5053983;28;20430;-83
2023/03/20 12:34:09;;;;;;;0.50;0.40;;;14.60;99.90;;;;;;5054021;28;20435;-83
2023/03/20 12:36:38;;;;;;;0.57;0.40;;;14.70;99.90;;;;;;5053903;28;20427;-83
2023/03/20 12:39:11;;;;;;;0.90;0.50;;;14.60;99.90;;;;;;5053542;28;20978;-83
2023/03/20 12:41:48;;;;;;;0.50;0.40;;;14.50;99.90;;;;;;5053885;28;20419;-83
2023/03/20 12:44:32;;;;;;;0.50;0.40;;;14.50;99.90;;;;;;5053835;28;20893;-83
2023/03/20 12:47:15;;;;;;;0.40;0.30;;;14.60;99.90;;;;;;5063192;28;20489;-82
2023/03/20 12:49:51;;;;;;;0.40;0.33;;;14.60;99.90;;;;;;5055671;28;20521;-83
2023/03/20 12:52:27;;;;;;;0.60;0.40;;;14.90;99.90;;;;;;5053742;28;20434;-83
2023/03/20 12:55:24;;;;;;;0.40;0.30;;;15.00;99.90;;;;;;5053366;28;20914;-82
2023/03/20 12:58:01;;;;;;;0.63;0.40;;;15.10;99.90;;;;;;5053546;28;20435;-83
2023/03/20 13:00:33;;;;;;;0.50;0.40;;;15.20;99.90;;;;;;5053583;28;20466;-83
2023/03/20 13:03:14;;;;;;;0.50;0.40;;;15.20;99.90;;;;;;5053285;28;20933;-82
2023/03/20 13:05:45;;;;;;;0.40;0.40;;;15.20;99.90;;;;;;5053174;28;20928;-83
2023/03/20 13:08:35;;;;;;;0.40;0.30;;;15.10;99.90;;;;;;5053360;28;20514;-82